createdAt,value
2023-04-15T00:00:34.675Z,62.95
2023-04-15T00:02:39.673Z,63.31
2023-04-15T00:04:50.214Z,62.88
2023-04-15T00:06:56.060Z,63.00
2023-04-15T00:09:01.441Z,62.53
2023-04-15T00:11:06.705Z,62.63
2023-04-15T00:13:12.158Z,62.66
2023-04-15T00:15:19.553Z,62.39
2023-04-15T00:17:24.865Z,62.80
2023-04-15T00:19:30.608Z,63.05
2023-04-15T00:21:38.304Z,62.73
2023-04-15T00:23:47.248Z,62.85
2023-04-15T00:25:55.594Z,62.55
2023-04-15T00:28:01.379Z,63.13
2023-04-15T00:30:07.401Z,63.26
2023-04-15T00:32:12.381Z,62.20
2023-04-15T00:34:18.916Z,61.97
2023-04-15T00:36:26.752Z,62.55
2023-04-15T00:38:35.359Z,62.17
2023-04-15T00:40:41.630Z,61.77
2023-04-15T00:42:46.576Z,61.63
2023-04-15T00:44:52.509Z,61.49
2023-04-15T00:46:57.517Z,62.05
2023-04-15T00:49:03.119Z,61.71
2023-04-15T00:51:08.901Z,62.10
2023-04-15T00:53:11.202Z,62.11
2023-04-15T00:55:20.134Z,61.88
2023-04-15T00:57:26.133Z,62.39
2023-04-15T00:59:32.367Z,62.42
2023-04-15T01:01:38.845Z,62.61
2023-04-15T01:03:43.994Z,63.24
2023-04-15T01:05:49.457Z,62.94
2023-04-15T01:07:54.637Z,62.73
2023-04-15T01:09:59.895Z,62.98
2023-04-15T01:12:08.801Z,63.25
2023-04-15T01:14:14.238Z,63.18
2023-04-15T01:16:19.910Z,63.63
2023-04-15T01:18:25.312Z,63.65
2023-04-15T01:20:30.960Z,63.41
2023-04-15T01:22:38.166Z,63.78
2023-04-15T01:24:43.490Z,63.70
2023-04-15T01:26:53.521Z,63.79
2023-04-15T01:28:58.845Z,64.09
2023-04-15T01:31:10.931Z,63.76
2023-04-15T01:33:16.349Z,63.75
2023-04-15T01:35:24.427Z,64.21
2023-04-15T01:37:29.530Z,64.13
2023-04-15T01:39:35.386Z,63.86
2023-04-15T01:41:42.613Z,64.22
2023-04-15T01:43:50.228Z,64.15
2023-04-15T01:45:56.051Z,64.34
2023-04-15T01:48:01.128Z,64.04
2023-04-15T01:50:07.803Z,64.53
2023-04-15T01:52:12.784Z,64.59
2023-04-15T01:54:20.886Z,64.76
2023-04-15T01:56:26.907Z,64.78
2023-04-15T01:58:31.871Z,65.20
2023-04-15T02:00:39.565Z,65.52
2023-04-15T02:02:45.126Z,65.49
2023-04-15T02:04:50.632Z,65.77
2023-04-15T02:06:55.896Z,66.18
2023-04-15T02:09:01.694Z,66.14
2023-04-15T02:11:07.182Z,66.21
2023-04-15T02:13:12.431Z,66.50
2023-04-15T02:15:20.440Z,66.95
2023-04-15T02:17:28.365Z,67.14
2023-04-15T02:19:33.440Z,67.26
2023-04-15T02:21:40.112Z,67.06
2023-04-15T02:23:45.172Z,67.31
2023-04-15T02:25:53.346Z,67.34
2023-04-15T02:28:00.915Z,67.68
2023-04-15T02:30:06.022Z,67.80
2023-04-15T02:32:11.995Z,67.76
2023-04-15T02:34:19.692Z,67.84
2023-04-15T02:36:24.776Z,67.60
2023-04-15T02:38:32.830Z,67.73
2023-04-15T02:40:40.103Z,68.50
2023-04-15T02:42:45.814Z,68.41
2023-04-15T02:44:54.420Z,68.46
2023-04-15T02:46:59.374Z,68.36
2023-04-15T02:49:04.389Z,68.83
2023-04-15T02:51:23.557Z,69.11
2023-04-15T02:53:31.682Z,69.03
2023-04-15T02:55:36.603Z,69.19
2023-04-15T02:57:41.924Z,69.68
2023-04-15T02:59:47.309Z,70.04
2023-04-15T03:01:52.463Z,70.48
2023-04-15T03:03:57.484Z,70.41
2023-04-15T03:06:02.572Z,70.66
2023-04-15T03:08:10.456Z,71.04
2023-04-15T03:10:15.777Z,70.96
2023-04-15T03:12:20.799Z,71.42
2023-04-15T03:14:26.049Z,71.43
2023-04-15T03:16:30.960Z,71.60
2023-04-15T03:18:35.873Z,71.66
2023-04-15T03:20:43.294Z,71.72
2023-04-15T03:22:48.200Z,72.12
2023-04-15T03:24:55.762Z,72.19
2023-04-15T03:27:02.053Z,72.15
2023-04-15T03:29:07.343Z,72.32
2023-04-15T03:31:12.992Z,72.78
2023-04-15T03:33:19.692Z,72.93
2023-04-15T03:35:24.678Z,73.08
2023-04-15T03:37:29.437Z,73.40
2023-04-15T03:39:34.242Z,73.30
2023-04-15T03:41:42.501Z,73.86
2023-04-15T03:43:49.740Z,74.13
2023-04-15T03:45:54.707Z,74.40
2023-04-15T03:48:15.567Z,74.52
2023-04-15T03:50:24.894Z,74.81
2023-04-15T03:52:30.421Z,75.39
2023-04-15T03:54:35.373Z,75.20
2023-04-15T03:56:43.024Z,75.47
2023-04-15T03:58:50.468Z,75.12
2023-04-15T04:00:55.892Z,75.21
2023-04-15T04:03:01.801Z,75.13
2023-04-15T04:05:07.567Z,75.38
2023-04-15T04:07:19.114Z,75.51
2023-04-15T04:09:24.438Z,76.11
2023-04-15T04:11:29.310Z,75.93
2023-04-15T04:13:36.944Z,75.97
2023-04-15T04:15:42.527Z,76.83
2023-04-15T04:17:48.230Z,76.31
2023-04-15T04:19:54.042Z,76.51
2023-04-15T04:21:59.026Z,76.54
2023-04-15T04:24:03.912Z,76.69
2023-04-15T04:26:09.293Z,76.62
2023-04-15T04:28:14.791Z,77.19
2023-04-15T04:30:23.748Z,77.13
2023-04-15T04:32:30.555Z,77.84
2023-04-15T04:34:35.601Z,77.07
2023-04-15T04:36:40.793Z,77.81
2023-04-15T04:38:45.730Z,77.72
2023-04-15T04:40:50.798Z,77.73
2023-04-15T04:42:55.718Z,77.86
2023-04-15T04:45:00.674Z,77.90
2023-04-15T04:47:08.200Z,78.04
2023-04-15T04:49:13.402Z,78.42
2023-04-15T04:51:19.527Z,78.32
2023-04-15T04:53:24.641Z,78.09
2023-04-15T04:55:29.878Z,78.26
2023-04-15T04:57:36.234Z,78.16
2023-04-15T04:59:41.166Z,77.94
2023-04-15T05:01:49.392Z,78.37
2023-04-15T05:03:57.865Z,78.30
2023-04-15T05:06:03.362Z,78.61
2023-04-15T05:08:08.890Z,78.63
2023-04-15T05:10:16.421Z,78.80
2023-04-15T05:12:23.975Z,78.58
2023-04-15T05:14:29.356Z,78.71
2023-04-15T05:16:34.246Z,78.56
2023-04-15T05:18:39.174Z,78.49
2023-04-15T05:20:49.184Z,78.97
2023-04-15T05:22:54.123Z,79.13
2023-04-15T05:24:59.171Z,79.60
2023-04-15T05:27:04.419Z,79.06
2023-04-15T05:29:09.357Z,79.16
2023-04-15T05:31:14.401Z,79.31
2023-04-15T05:33:19.676Z,78.64
2023-04-15T05:35:24.765Z,78.45
2023-04-15T05:37:32.366Z,78.51
2023-04-15T05:39:40.663Z,78.17
2023-04-15T05:41:45.708Z,77.75
2023-04-15T05:43:52.252Z,77.07
2023-04-15T05:45:57.269Z,77.16
2023-04-15T05:48:02.460Z,76.50
2023-04-15T05:50:08.547Z,76.53
2023-04-15T05:52:13.586Z,75.97
2023-04-15T05:54:28.118Z,75.45
2023-04-15T05:56:33.045Z,75.31
2023-04-15T05:58:38.103Z,74.89
2023-04-15T06:00:43.159Z,74.40
2023-04-15T06:02:50.283Z,74.40
2023-04-15T06:04:55.660Z,73.64
2023-04-15T06:07:00.756Z,73.16
2023-04-15T06:09:05.774Z,73.59
2023-04-15T06:11:13.352Z,73.35
2023-04-15T06:13:20.446Z,72.75
2023-04-15T06:15:25.793Z,72.96
2023-04-15T06:17:31.016Z,72.41
2023-04-15T06:19:36.631Z,71.71
2023-04-15T06:21:42.190Z,71.89
2023-04-15T06:23:51.259Z,71.18
2023-04-15T06:25:56.226Z,70.98
2023-04-15T06:28:03.776Z,70.99
2023-04-15T06:30:13.082Z,70.24
2023-04-15T06:32:21.567Z,70.23
2023-04-15T06:34:26.606Z,70.63
2023-04-15T06:36:32.714Z,70.18
2023-04-15T06:38:39.639Z,69.32
2023-04-15T06:40:44.870Z,69.34
2023-04-15T06:42:49.963Z,69.32
2023-04-15T06:44:58.132Z,68.77
2023-04-15T06:47:03.236Z,69.05
2023-04-15T06:49:08.395Z,67.75
2023-04-15T06:51:13.256Z,67.71
2023-04-15T06:53:21.028Z,68.01
2023-04-15T06:55:26.268Z,67.62
2023-04-15T06:57:33.766Z,67.19
2023-04-15T06:59:40.149Z,66.68
2023-04-15T07:01:48.949Z,66.40
2023-04-15T07:03:54.658Z,65.88
2023-04-15T07:06:00.046Z,65.61
2023-04-15T07:08:05.069Z,65.53
2023-04-15T07:10:12.194Z,65.07
2023-04-15T07:12:19.298Z,64.70
2023-04-15T07:17:22.490Z,63.75
2023-04-15T07:19:27.653Z,63.73
2023-04-15T07:21:32.668Z,63.80
2023-04-15T07:23:37.918Z,63.78
2023-04-15T07:25:42.985Z,63.12
2023-04-15T07:27:48.464Z,63.49
2023-04-15T07:29:53.931Z,62.16
2023-04-15T07:31:59.368Z,62.61
2023-04-15T07:34:07.226Z,62.38
2023-04-15T07:36:12.609Z,62.03
2023-04-15T07:38:20.824Z,61.71
2023-04-15T07:40:26.000Z,61.87
2023-04-15T07:42:31.862Z,61.53
2023-04-15T07:44:37.598Z,61.07
2023-04-15T07:46:42.525Z,60.74
2023-04-15T07:48:47.852Z,60.16
2023-04-15T07:50:55.549Z,59.87
2023-04-15T07:53:01.004Z,59.84
2023-04-15T07:55:09.962Z,59.96
2023-04-15T07:57:14.805Z,59.87
2023-04-15T07:59:24.627Z,59.31
2023-04-15T08:01:29.659Z,59.30
2023-04-15T08:03:35.094Z,59.00
2023-04-15T08:05:41.295Z,59.79
2023-04-15T08:07:51.479Z,59.45
2023-04-15T08:09:56.465Z,59.04
2023-04-15T08:12:01.530Z,59.27
2023-04-15T08:14:07.142Z,58.95
2023-04-15T08:16:24.979Z,58.34
2023-04-15T08:18:29.993Z,58.94
2023-04-15T08:20:34.998Z,58.44
2023-04-15T08:22:40.042Z,58.12
2023-04-15T08:24:48.237Z,57.49
2023-04-15T08:26:53.265Z,57.44
2023-04-15T08:28:58.465Z,56.91
2023-04-15T08:31:03.904Z,56.84
2023-04-15T08:33:09.539Z,56.50
2023-04-15T08:35:14.754Z,56.42
2023-04-15T08:37:19.652Z,57.25
2023-04-15T08:39:24.647Z,57.35
2023-04-15T08:41:35.045Z,56.75
2023-04-15T08:43:45.488Z,56.18
2023-04-15T08:45:52.165Z,55.86
2023-04-15T08:47:59.913Z,55.95
2023-04-15T08:50:06.727Z,55.81
2023-04-15T08:52:13.517Z,56.25
2023-04-15T08:54:21.070Z,56.17
2023-04-15T08:56:31.357Z,54.68
2023-04-15T08:58:40.634Z,54.79
2023-04-15T09:00:46.080Z,54.07
2023-04-15T09:02:54.223Z,53.20
2023-04-15T09:04:59.408Z,53.54
2023-04-15T09:07:04.977Z,53.47
2023-04-15T09:09:10.814Z,53.81
2023-04-15T09:11:15.837Z,53.00
2023-04-15T09:13:26.774Z,52.84
2023-04-15T09:15:36.662Z,52.73
2023-04-15T09:17:46.569Z,51.84
2023-04-15T09:20:11.692Z,50.94
2023-04-15T09:22:21.824Z,50.71
2023-04-15T09:24:27.284Z,50.29
2023-04-15T09:26:41.031Z,49.24
2023-04-15T09:28:46.026Z,49.37
2023-04-15T09:30:56.812Z,48.66
2023-04-15T09:33:11.285Z,48.75
2023-04-15T09:35:19.240Z,49.09
2023-04-15T09:37:38.502Z,46.58
2023-04-15T09:39:52.180Z,45.83
2023-04-15T09:42:10.199Z,46.15
2023-04-15T09:44:25.855Z,45.06
2023-04-15T09:46:49.855Z,45.81
2023-04-15T09:49:12.137Z,45.74
2023-04-15T09:51:18.948Z,43.62
2023-04-15T09:53:26.245Z,43.60
2023-04-15T09:55:31.188Z,44.33
2023-04-15T09:57:39.402Z,44.81
2023-04-15T09:59:45.126Z,45.74
2023-04-15T10:01:52.660Z,46.85
2023-04-15T10:04:00.551Z,45.93
2023-04-15T10:06:06.655Z,44.30
2023-04-15T10:08:12.257Z,44.80
2023-04-15T10:10:19.804Z,45.95
2023-04-15T10:12:26.388Z,44.97
2023-04-15T10:14:34.982Z,45.57
2023-04-15T10:16:46.290Z,43.88
2023-04-15T10:18:57.881Z,43.36
2023-04-15T10:21:04.314Z,43.25
2023-04-15T10:23:12.827Z,44.59
2023-04-15T10:25:19.597Z,44.90
2023-04-15T10:27:25.144Z,44.32
2023-04-15T10:29:30.219Z,44.85
2023-04-15T10:31:38.596Z,44.27
2023-04-15T10:33:45.661Z,45.05
2023-04-15T10:35:54.813Z,44.54
2023-04-15T10:38:00.155Z,44.69
2023-04-15T10:40:25.085Z,44.26
2023-04-15T10:42:37.961Z,43.73
2023-04-15T10:44:46.272Z,44.97
2023-04-15T10:46:52.135Z,42.50
2023-04-15T10:48:57.924Z,40.92
2023-04-15T10:51:07.092Z,41.73
2023-04-15T10:53:14.305Z,42.41
2023-04-15T10:55:24.650Z,42.88
2023-04-15T10:57:38.377Z,42.50
2023-04-15T11:00:04.893Z,40.80
2023-04-15T11:02:10.904Z,42.30
2023-04-15T11:04:21.498Z,42.81
2023-04-15T11:06:49.509Z,41.95
2023-04-15T11:09:02.835Z,41.42
2023-04-15T11:11:11.258Z,42.48
2023-04-15T11:13:22.064Z,41.57
2023-04-15T11:15:33.209Z,42.42
2023-04-15T11:17:38.619Z,42.36
2023-04-15T11:19:43.959Z,41.99
2023-04-15T11:21:57.794Z,41.77
2023-04-15T11:24:07.001Z,41.42
2023-04-15T11:26:14.079Z,42.48
2023-04-15T11:28:20.367Z,42.80
2023-04-15T11:30:29.702Z,42.79
2023-04-15T11:32:34.622Z,41.89
2023-04-15T11:34:41.185Z,42.67
2023-04-15T11:36:49.342Z,43.63
2023-04-15T11:38:58.135Z,44.75
2023-04-15T11:41:03.060Z,44.44
2023-04-15T11:43:09.524Z,44.68
2023-04-15T11:45:16.186Z,44.07
2023-04-15T11:47:27.441Z,42.99
2023-04-15T11:49:35.361Z,42.20
2023-04-15T11:51:42.882Z,41.86
2023-04-15T11:53:49.514Z,42.16
2023-04-15T11:55:57.568Z,41.73
2023-04-15T11:58:15.095Z,42.25
2023-04-15T12:00:25.363Z,42.86
2023-04-15T12:02:34.916Z,43.83
2023-04-15T12:04:40.007Z,43.00
2023-04-15T12:06:45.201Z,42.45
2023-04-15T12:09:08.485Z,42.47
2023-04-15T12:11:19.021Z,43.06
2023-04-15T12:13:24.403Z,44.12
2023-04-15T12:15:29.428Z,43.95
2023-04-15T12:17:50.898Z,42.56
2023-04-15T12:19:59.827Z,42.60
2023-04-15T12:22:06.786Z,43.01
2023-04-15T12:24:12.989Z,42.07
2023-04-15T12:26:24.005Z,43.17
2023-04-15T12:28:33.732Z,43.65
2023-04-15T12:30:39.273Z,42.77
2023-04-15T12:32:44.300Z,43.48
2023-04-15T12:34:56.262Z,43.84
2023-04-15T12:37:04.474Z,42.40
2023-04-15T12:39:09.634Z,42.07
2023-04-15T12:41:14.566Z,43.18
2023-04-15T12:43:26.574Z,43.95
2023-04-15T12:45:31.967Z,44.06
2023-04-15T12:47:36.853Z,44.60
2023-04-15T12:49:45.342Z,45.13
2023-04-15T12:51:54.034Z,44.51
2023-04-15T12:53:59.119Z,44.30
2023-04-15T12:56:04.014Z,44.24
2023-04-15T12:58:09.053Z,48.39
2023-04-15T13:00:20.792Z,52.61
2023-04-15T13:02:28.867Z,51.67
2023-04-15T13:04:34.138Z,53.76
2023-04-15T13:06:39.425Z,55.27
2023-04-15T13:08:57.393Z,55.57
2023-04-15T13:11:03.102Z,54.32
2023-04-15T13:13:10.193Z,53.90
2023-04-15T13:15:21.046Z,53.59
2023-04-15T13:17:26.026Z,54.94
2023-04-15T13:19:31.122Z,54.53
2023-04-15T13:21:36.972Z,51.63
2023-04-15T13:23:43.227Z,50.48
2023-04-15T13:25:49.293Z,50.10
2023-04-15T13:27:54.226Z,49.31
2023-04-15T13:29:59.062Z,50.94
2023-04-15T13:32:06.653Z,51.60
2023-04-15T13:34:11.894Z,50.36
2023-04-15T13:36:19.796Z,51.27
2023-04-15T13:38:24.740Z,52.02
2023-04-15T13:40:30.048Z,53.35
2023-04-15T13:42:35.107Z,53.69
2023-04-15T13:44:41.148Z,53.07
2023-04-15T13:46:46.149Z,52.00
2023-04-15T13:48:53.675Z,52.76
2023-04-15T13:50:58.823Z,52.47
2023-04-15T13:53:08.941Z,53.95
2023-04-15T13:55:20.315Z,53.33
2023-04-15T13:57:26.151Z,53.30
2023-04-15T13:59:31.181Z,51.75
2023-04-15T14:01:36.738Z,52.00
2023-04-15T14:03:41.935Z,52.62
2023-04-15T14:05:53.693Z,53.05
2023-04-15T14:07:58.795Z,51.52
2023-04-15T14:10:04.403Z,51.33
2023-04-15T14:12:10.500Z,51.03
2023-04-15T14:14:16.337Z,50.92
2023-04-15T14:16:25.730Z,52.59
2023-04-15T14:18:30.699Z,51.28
2023-04-15T14:20:35.842Z,53.05
2023-04-15T14:22:43.410Z,53.52
2023-04-15T14:24:53.482Z,53.63
2023-04-15T14:26:58.556Z,53.16
2023-04-15T14:29:03.745Z,52.59
2023-04-15T14:31:09.043Z,53.37
2023-04-15T14:33:14.233Z,54.51
2023-04-15T14:35:21.627Z,55.23
2023-04-15T14:37:26.644Z,54.54
2023-04-15T14:39:33.996Z,54.54
2023-04-15T14:41:38.901Z,56.68
2023-04-15T14:43:43.655Z,55.62
2023-04-15T14:45:52.159Z,57.40
2023-04-15T14:47:57.019Z,56.09
2023-04-15T14:50:02.701Z,55.50
2023-04-15T14:52:07.680Z,56.88
2023-04-15T14:54:12.901Z,57.42
2023-04-15T14:56:22.404Z,57.73
2023-04-15T14:58:28.135Z,56.72
2023-04-15T15:00:33.429Z,56.72
2023-04-15T15:02:40.353Z,57.66
2023-04-15T15:04:45.507Z,57.65
2023-04-15T15:06:53.375Z,58.58
2023-04-15T15:08:58.271Z,59.19
2023-04-15T15:11:03.309Z,61.26
2023-04-15T15:13:12.156Z,59.40
2023-04-15T15:17:30.161Z,58.58
2023-04-15T15:19:35.043Z,59.08
2023-04-15T15:21:40.592Z,60.29
2023-04-15T15:23:45.526Z,60.47
2023-04-15T15:25:50.519Z,59.68
2023-04-15T15:27:55.852Z,58.87
2023-04-15T15:30:03.544Z,59.64
2023-04-15T15:32:08.926Z,60.47
2023-04-15T15:34:13.823Z,60.16
2023-04-15T15:36:19.473Z,59.93
2023-04-15T15:38:26.499Z,58.87
2023-04-15T15:40:31.493Z,59.01
2023-04-15T15:42:41.762Z,58.56
2023-04-15T15:44:54.517Z,58.20
2023-04-15T15:47:13.536Z,58.34
2023-04-15T15:49:35.426Z,57.75
2023-04-15T15:51:51.196Z,59.17
2023-04-15T15:54:08.414Z,58.11
2023-04-15T15:56:14.504Z,59.49
2023-04-15T15:58:56.797Z,61.39
2023-04-15T16:01:41.712Z,61.74
2023-04-15T16:05:58.889Z,62.67
2023-04-15T16:08:26.500Z,63.30
2023-04-15T16:11:00.663Z,64.47
2023-04-15T16:13:11.326Z,65.41
2023-04-15T16:15:20.842Z,65.87
2023-04-15T16:17:57.494Z,65.91
2023-04-15T16:20:15.523Z,65.75
2023-04-15T16:22:25.979Z,65.71
2023-04-15T16:24:49.011Z,66.48
2023-04-15T16:27:01.822Z,66.54
2023-04-15T16:29:07.456Z,67.71
2023-04-15T16:31:14.191Z,67.54
2023-04-15T16:33:21.096Z,66.84
2023-04-15T16:35:26.416Z,66.12
2023-04-15T16:37:36.575Z,66.53
2023-04-15T16:39:43.532Z,67.97
2023-04-15T16:41:48.518Z,67.18
2023-04-15T16:43:53.486Z,68.17
2023-04-15T16:46:02.221Z,68.40
2023-04-15T16:48:18.093Z,68.15
2023-04-15T16:50:23.442Z,68.50
2023-04-15T16:52:39.428Z,68.44
2023-04-15T16:55:04.208Z,68.87
2023-04-15T16:57:20.972Z,68.71
2023-04-15T16:59:39.210Z,69.45
2023-04-15T17:01:51.220Z,69.91
2023-04-15T17:03:57.296Z,70.10
2023-04-15T17:06:03.888Z,70.70
2023-04-15T17:08:12.644Z,71.59
2023-04-15T17:10:20.815Z,72.29
2023-04-15T17:12:30.556Z,72.28
2023-04-15T17:14:41.880Z,72.12
2023-04-15T17:16:49.997Z,71.54
2023-04-15T17:19:07.683Z,71.82
2023-04-15T17:21:22.643Z,71.98
2023-04-15T17:23:31.246Z,72.67
2023-04-15T17:25:42.236Z,72.13
2023-04-15T17:27:49.914Z,71.87
2023-04-15T17:29:57.647Z,72.32
2023-04-15T17:32:34.913Z,72.26
2023-04-15T17:34:49.696Z,72.69
2023-04-15T17:37:00.017Z,72.59
2023-04-15T17:39:27.203Z,71.62
2023-04-15T17:41:40.047Z,72.43
2023-04-15T17:43:50.178Z,72.41
2023-04-15T17:46:01.252Z,72.64
2023-04-15T17:48:28.355Z,72.85
2023-04-15T17:50:40.590Z,73.30
2023-04-15T17:53:01.301Z,74.04
2023-04-15T17:55:22.301Z,74.54
2023-04-15T17:57:38.479Z,73.58
2023-04-15T17:59:50.557Z,73.57
2023-04-15T18:02:04.211Z,73.76
2023-04-15T18:04:09.791Z,74.17
2023-04-15T18:06:17.873Z,74.23
2023-04-15T18:08:24.245Z,73.88
2023-04-15T18:10:32.081Z,74.22
2023-04-15T18:12:37.050Z,73.95
2023-04-15T18:14:41.936Z,73.38
2023-04-15T18:16:48.572Z,73.17
2023-04-15T18:18:53.424Z,72.97
2023-04-15T18:20:58.286Z,73.37
2023-04-15T18:23:03.229Z,72.79
2023-04-15T18:25:09.855Z,73.04
2023-04-15T18:27:19.817Z,73.48
2023-04-15T18:29:25.856Z,74.17
2023-04-15T18:31:32.125Z,74.05
2023-04-15T18:33:40.176Z,74.90
2023-04-15T18:35:46.439Z,75.19
2023-04-15T18:37:56.832Z,74.73
2023-04-15T18:40:02.358Z,74.75
2023-04-15T18:42:07.416Z,73.85
2023-04-15T18:44:14.975Z,73.54
2023-04-15T18:46:20.093Z,73.66
2023-04-15T18:48:28.249Z,74.27
2023-04-15T18:50:33.158Z,74.44
2023-04-15T18:52:38.083Z,74.88
2023-04-15T18:54:43.236Z,75.57
2023-04-15T18:56:50.327Z,75.99
2023-04-15T18:59:19.365Z,76.42
2023-04-15T19:01:23.301Z,75.60
2023-04-15T19:03:31.995Z,74.39
2023-04-15T19:05:37.049Z,74.99
2023-04-15T19:07:42.007Z,75.56
2023-04-15T19:09:47.593Z,75.52
2023-04-15T19:11:52.975Z,74.59
2023-04-15T19:13:57.900Z,74.77
2023-04-15T19:16:06.148Z,75.38
2023-04-15T19:18:13.820Z,75.62
2023-04-15T19:20:21.781Z,75.90
2023-04-15T19:22:26.793Z,75.42
2023-04-15T19:24:33.171Z,75.42
2023-04-15T19:26:39.750Z,75.29
2023-04-15T19:28:44.862Z,75.86
2023-04-15T19:30:49.936Z,75.63
2023-04-15T19:32:55.092Z,75.68
2023-04-15T19:35:02.787Z,75.47
2023-04-15T19:37:07.903Z,75.84
2023-04-15T19:39:13.851Z,76.03
2023-04-15T19:41:20.296Z,76.47
2023-04-15T19:43:28.370Z,76.34
2023-04-15T19:45:36.571Z,76.98
2023-04-15T19:47:41.864Z,76.46
2023-04-15T19:49:47.489Z,76.73
2023-04-15T19:51:59.994Z,76.96
2023-04-15T19:54:05.389Z,76.88
2023-04-15T19:56:11.098Z,77.10
2023-04-15T19:58:19.904Z,76.56
2023-04-15T20:00:25.758Z,77.28
2023-04-15T20:02:32.635Z,77.04
2023-04-15T20:04:38.167Z,77.24
2023-04-15T20:06:43.191Z,77.20
2023-04-15T20:08:53.711Z,77.31
2023-04-15T20:11:01.539Z,77.34
2023-04-15T20:13:06.457Z,76.84
2023-04-15T20:15:12.432Z,77.02
2023-04-15T20:17:20.591Z,77.41
2023-04-15T20:19:27.454Z,77.46
2023-04-15T20:21:32.526Z,77.21
2023-04-15T20:23:38.511Z,77.41
2023-04-15T20:25:48.014Z,77.25
2023-04-15T20:27:53.238Z,77.14
2023-04-15T20:29:58.218Z,77.21
2023-04-15T20:32:03.147Z,77.57
2023-04-15T20:34:10.624Z,77.55
2023-04-15T20:36:17.355Z,77.63
2023-04-15T20:38:24.298Z,77.36
2023-04-15T20:40:29.295Z,77.45
2023-04-15T20:42:38.244Z,77.31
2023-04-15T20:44:43.388Z,77.52
2023-04-15T20:46:49.709Z,77.56
2023-04-15T20:48:54.582Z,77.80
2023-04-15T20:51:00.656Z,78.61
2023-04-15T20:53:06.026Z,78.35
2023-04-15T20:55:14.174Z,78.19
2023-04-15T20:57:24.753Z,78.06
2023-04-15T20:59:33.110Z,77.29
2023-04-15T21:01:38.081Z,77.00
2023-04-15T21:03:43.078Z,76.47
2023-04-15T21:05:50.694Z,76.87
2023-04-15T21:07:56.359Z,76.98
2023-04-15T21:10:02.790Z,76.77
2023-04-15T21:12:10.305Z,76.68
2023-04-15T21:14:15.557Z,76.58
2023-04-15T21:16:23.125Z,76.93
2023-04-15T21:18:31.495Z,77.06
2023-04-15T21:20:36.672Z,77.02
2023-04-15T21:22:41.616Z,76.58
2023-04-15T21:24:50.704Z,76.43
2023-04-15T21:26:57.944Z,76.97
2023-04-15T21:29:03.297Z,76.95
2023-04-15T21:31:09.034Z,76.92
2023-04-15T21:33:52.259Z,76.89
2023-04-15T21:35:57.442Z,77.32
2023-04-15T21:38:02.290Z,76.81
2023-04-15T21:40:08.385Z,77.04
2023-04-15T21:42:13.312Z,77.39
2023-04-15T21:44:20.378Z,77.17
2023-04-15T21:46:35.578Z,76.68
2023-04-15T21:48:47.561Z,77.33
2023-04-15T21:50:53.184Z,77.17
2023-04-15T21:53:00.141Z,76.67
2023-04-15T21:55:05.391Z,76.61
2023-04-15T21:57:10.787Z,77.03
2023-04-15T21:59:20.446Z,76.96
2023-04-15T22:01:32.177Z,77.44
2023-04-15T22:03:38.257Z,77.32
2023-04-15T22:05:50.051Z,76.91
2023-04-15T22:07:58.394Z,77.47
2023-04-15T22:10:05.353Z,77.14
2023-04-15T22:12:10.663Z,77.45
2023-04-15T22:14:19.312Z,77.45
2023-04-15T22:16:26.745Z,77.46
2023-04-15T22:18:34.395Z,77.74
2023-04-15T22:20:47.470Z,77.57
2023-04-15T22:22:54.841Z,77.57
2023-04-15T22:25:03.500Z,77.69
2023-04-15T22:27:09.067Z,77.40
2023-04-15T22:29:14.708Z,77.92
2023-04-15T22:31:22.323Z,78.41
2023-04-15T22:33:28.092Z,78.75
2023-04-15T22:35:34.574Z,78.92
2023-04-15T22:37:42.467Z,78.50
2023-04-15T22:39:54.576Z,78.71
2023-04-15T22:42:01.490Z,78.62
2023-04-15T22:44:06.620Z,78.64
2023-04-15T22:46:11.985Z,78.43
2023-04-15T22:48:17.672Z,78.54
2023-04-15T22:50:23.159Z,78.20
2023-04-15T22:52:31.019Z,78.41
2023-04-15T22:54:42.065Z,78.64
2023-04-15T22:56:47.214Z,78.59
2023-04-15T22:58:53.077Z,78.24
2023-04-15T23:00:59.322Z,78.50
2023-04-15T23:03:05.449Z,78.66
2023-04-15T23:05:13.601Z,78.21
2023-04-15T23:07:21.304Z,78.75
2023-04-15T23:09:26.539Z,78.76
2023-04-15T23:11:34.234Z,79.23
2023-04-15T23:13:39.555Z,79.41
2023-04-15T23:15:44.697Z,79.75
2023-04-15T23:17:49.760Z,80.11
2023-04-15T23:19:54.858Z,80.40
2023-04-15T23:22:01.483Z,80.54
2023-04-15T23:24:07.344Z,80.72
2023-04-15T23:26:12.653Z,80.81
2023-04-15T23:28:27.207Z,81.74
2023-04-15T23:30:38.971Z,81.89
2023-04-15T23:32:45.754Z,81.98
2023-04-15T23:34:57.517Z,82.50
2023-04-15T23:37:04.340Z,82.65
2023-04-15T23:39:11.646Z,82.47
2023-04-15T23:41:28.087Z,82.50
2023-04-15T23:43:36.927Z,82.67
2023-04-15T23:45:44.207Z,83.20
2023-04-15T23:47:58.285Z,83.20
2023-04-15T23:50:03.785Z,82.88
2023-04-15T23:52:09.266Z,83.15
2023-04-15T23:54:14.253Z,83.30
2023-04-15T23:56:22.769Z,83.10
2023-04-15T23:58:28.974Z,83.37
